Time;durP1;ratioP1;P1;durP2;ratioP2;P2;SDS_P1;SDS_P2;PMS_P1;PMS_P2;Temp;Humidity;BMP_temperature;BMP_pressure;BME280_temperature;BME280_humidity;BME280_pressure;Samples;Min_cycle;Max_cycle;Signal;HPM_P1;HPM_P2
2024/03/27 00:00:51;;;;;;;6.65;4.47;;;;;;;;;;5020052;28;20129;-80
2024/03/27 00:03:17;;;;;;;5.97;4.53;;;;;;;;;;5029075;28;20029;-79
2024/03/27 00:05:43;;;;;;;6.15;4.90;;;;;;;;;;5009630;28;20038;-80
2024/03/27 00:08:09;;;;;;;6.47;4.80;;;;;;;;;;5033829;28;20584;-81
2024/03/27 00:10:36;;;;;;;5.50;4.55;;;;;;;;;;4978090;28;20064;-81
2024/03/27 00:13:01;;;;;;;4.25;3.80;;;;;;;;;;5038911;28;20045;-81
2024/03/27 00:15:28;;;;;;;4.88;4.28;;;;;;;;;;5029072;28;20122;-81
2024/03/27 00:17:53;;;;;;;10.75;5.00;;;;;;;;;;5017381;28;20026;-82
2024/03/27 00:20:21;;;;;;;13.20;4.50;;;;;;;;;;5041473;28;20167;-81
2024/03/27 00:22:47;;;;;;;7.85;4.32;;;;;;;;;;5008411;28;20034;-82
2024/03/27 00:25:14;;;;;;;7.15;4.47;;;;;;;;;;5020159;28;20021;-82
2024/03/27 00:27:40;;;;;;;5.95;4.68;;;;;;;;;;5015081;28;20060;-82
2024/03/27 00:30:06;;;;;;;5.35;4.85;;;;;;;;;;5036474;28;20033;-81
2024/03/27 00:32:32;;;;;;;7.93;5.00;;;;;;;;;;5031028;28;20069;-81
2024/03/27 00:34:58;;;;;;;8.55;5.13;;;;;;;;;;5031379;28;20045;-80
2024/03/27 00:37:24;;;;;;;7.10;6.15;;;;;;;;;;5034838;28;20044;-82
2024/03/27 00:39:50;;;;;;;12.07;4.80;;;;;;;;;;5032898;28;20108;-82
2024/03/27 00:42:15;;;;;;;6.90;4.53;;;;;;;;;;5040869;28;20036;-82
2024/03/27 00:44:41;;;;;;;8.63;4.70;;;;;;;;;;5048552;28;20037;-84
2024/03/27 00:47:07;;;;;;;6.88;5.53;;;;;;;;;;5049725;28;20041;-83
2024/03/27 00:49:33;;;;;;;7.15;4.45;;;;;;;;;;5016738;28;20084;-84
2024/03/27 00:51:59;;;;;;;8.07;6.30;;;;;;;;;;5040475;28;20048;-83
2024/03/27 00:54:24;;;;;;;6.70;5.35;;;;;;;;;;5028552;28;20037;-81
2024/03/27 00:56:50;;;;;;;7.43;6.38;;;;;;;;;;5023804;28;20106;-83
2024/03/27 00:59:16;;;;;;;7.72;6.50;;;;;;;;;;5015554;28;20077;-81
2024/03/27 01:01:42;;;;;;;7.60;5.57;;;;;;;;;;5007800;28;20029;-83
2024/03/27 01:04:08;;;;;;;6.97;6.30;;;;;;;;;;5040905;28;20040;-82
2024/03/27 01:06:34;;;;;;;9.43;6.20;;;;;;;;;;5024066;28;20505;-82
2024/03/27 01:09:00;;;;;;;6.78;5.72;;;;;;;;;;5021299;28;20051;-82
2024/03/27 01:11:26;;;;;;;6.82;5.82;;;;;;;;;;5043221;28;20037;-82
2024/03/27 01:13:52;;;;;;;8.38;5.85;;;;;;;;;;5007570;28;20045;-82
2024/03/27 01:16:18;;;;;;;7.22;5.28;;;;;;;;;;5040262;28;20053;-81
2024/03/27 01:18:45;;;;;;;9.52;6.88;;;;;;;;;;5036823;28;20049;-83
2024/03/27 01:21:11;;;;;;;7.93;6.00;;;;;;;;;;5046212;28;20037;-82
2024/03/27 01:23:36;;;;;;;8.55;5.85;;;;;;;;;;5022469;28;20026;-81
2024/03/27 01:26:03;;;;;;;4.90;4.40;;;;;;;;;;4995375;28;20046;-83
2024/03/27 01:28:29;;;;;;;5.15;4.18;;;;;;;;;;5010304;28;20037;-82
2024/03/27 01:30:55;;;;;;;5.35;3.88;;;;;;;;;;5024010;28;20097;-84
2024/03/27 01:33:21;;;;;;;7.03;3.95;;;;;;;;;;5017304;28;20025;-82
2024/03/27 01:35:47;;;;;;;5.95;4.30;;;;;;;;;;5043794;28;20038;-82
2024/03/27 01:38:13;;;;;;;7.38;4.72;;;;;;;;;;5046279;28;20495;-82
2024/03/27 01:40:39;;;;;;;8.20;4.47;;;;;;;;;;5037202;28;20037;-81
2024/03/27 01:43:05;;;;;;;6.25;4.25;;;;;;;;;;5016728;28;20060;-82
2024/03/27 01:45:31;;;;;;;7.10;5.20;;;;;;;;;;5045671;28;20064;-83
2024/03/27 01:47:57;;;;;;;12.73;6.03;;;;;;;;;;5015259;28;20042;-81
2024/03/27 01:50:28;;;;;;;7.13;5.07;;;;;;;;;;5035080;28;20038;-82
2024/03/27 01:52:54;;;;;;;6.60;4.40;;;;;;;;;;5042421;28;20033;-81
2024/03/27 01:55:20;;;;;;;6.97;4.93;;;;;;;;;;5036004;28;20049;-81
2024/03/27 01:57:46;;;;;;;6.32;5.70;;;;;;;;;;5012365;28;20098;-81
2024/03/27 02:00:13;;;;;;;7.15;4.85;;;;;;;;;;5002007;28;20084;-80
2024/03/27 02:02:39;;;;;;;6.88;4.72;;;;;;;;;;4994874;28;20089;-80
2024/03/27 02:05:05;;;;;;;9.40;5.00;;;;;;;;;;5018332;28;20044;-81
2024/03/27 02:07:31;;;;;;;4.65;4.03;;;;;;;;;;5017036;28;20029;-83
2024/03/27 02:09:57;;;;;;;10.75;4.88;;;;;;;;;;4986638;28;20054;-81
2024/03/27 02:12:23;;;;;;;5.30;4.78;;;;;;;;;;5046526;28;20026;-81
2024/03/27 02:14:49;;;;;;;6.45;4.88;;;;;;;;;;5029758;28;20029;-82
2024/03/27 02:17:15;;;;;;;8.43;4.70;;;;;;;;;;5022445;28;20057;-81
2024/03/27 02:19:41;;;;;;;7.97;4.90;;;;;;;;;;4998001;28;20038;-82
2024/03/27 02:22:06;;;;;;;11.05;5.88;;;;;;;;;;4989185;28;20065;-83
2024/03/27 02:24:34;;;;;;;6.18;5.13;;;;;;;;;;5023101;28;20061;-83
2024/03/27 02:27:00;;;;;;;9.63;5.40;;;;;;;;;;5002846;28;20045;-81
2024/03/27 02:29:26;;;;;;;7.10;5.35;;;;;;;;;;5043404;28;20040;-78
2024/03/27 02:31:52;;;;;;;10.30;5.28;;;;;;;;;;5025503;28;20109;-81
2024/03/27 02:34:18;;;;;;;12.98;5.10;;;;;;;;;;4995938;28;20059;-81
2024/03/27 02:36:44;;;;;;;5.97;4.82;;;;;;;;;;5016158;28;20030;-82
2024/03/27 02:39:10;;;;;;;8.35;4.43;;;;;;;;;;5035861;28;20057;-80
2024/03/27 02:41:35;;;;;;;5.80;4.88;;;;;;;;;;5027835;28;20038;-80
2024/03/27 02:44:01;;;;;;;8.48;4.97;;;;;;;;;;5027714;28;20034;-81
2024/03/27 02:46:27;;;;;;;5.55;4.88;;;;;;;;;;5033167;28;20084;-82
2024/03/27 02:48:53;;;;;;;12.80;5.38;;;;;;;;;;5016354;28;20025;-82
2024/03/27 02:51:19;;;;;;;5.18;4.43;;;;;;;;;;5038729;28;20030;-81
2024/03/27 02:53:44;;;;;;;7.15;4.78;;;;;;;;;;5012048;28;20103;-82
2024/03/27 02:56:10;;;;;;;8.30;5.18;;;;;;;;;;5021607;28;20047;-82
2024/03/27 02:58:36;;;;;;;6.72;5.50;;;;;;;;;;5037129;28;20038;-82
2024/03/27 03:01:02;;;;;;;9.55;5.53;;;;;;;;;;5013791;28;20124;-83
2024/03/27 03:03:28;;;;;;;4.55;4.15;;;;;;;;;;5044089;28;20025;-83
2024/03/27 03:05:54;;;;;;;7.43;4.68;;;;;;;;;;5030519;28;20044;-83
2024/03/27 03:08:20;;;;;;;7.68;4.93;;;;;;;;;;4997062;28;20060;-82
2024/03/27 03:10:46;;;;;;;6.55;4.93;;;;;;;;;;5033322;28;20049;-83
2024/03/27 03:13:12;;;;;;;8.63;4.90;;;;;;;;;;5003125;28;20114;-82
2024/03/27 03:15:38;;;;;;;6.28;4.50;;;;;;;;;;5025151;28;20053;-81
2024/03/27 03:18:04;;;;;;;8.40;4.43;;;;;;;;;;5029893;28;20018;-81
2024/03/27 03:20:30;;;;;;;5.50;4.80;;;;;;;;;;5033251;28;20046;-84
2024/03/27 03:22:56;;;;;;;6.60;5.07;;;;;;;;;;5009647;28;20049;-82
2024/03/27 03:25:22;;;;;;;9.50;5.05;;;;;;;;;;5025650;28;20685;-81
2024/03/27 03:27:48;;;;;;;6.45;4.82;;;;;;;;;;5036753;28;20572;-81
2024/03/27 03:30:13;;;;;;;9.75;4.75;;;;;;;;;;5037874;28;20048;-82
2024/03/27 03:32:42;;;;;;;7.60;5.22;;;;;;;;;;5042482;28;20033;-80
2024/03/27 03:35:10;;;;;;;7.88;4.28;;;;;;;;;;5010873;28;20046;-81
2024/03/27 03:37:36;;;;;;;7.65;4.75;;;;;;;;;;5051306;28;20016;-88
2024/03/27 03:40:03;;;;;;;5.63;4.20;;;;;;;;;;5039624;28;20045;-87
2024/03/27 03:42:29;;;;;;;9.85;5.07;;;;;;;;;;5056549;28;20045;-84
2024/03/27 03:44:55;;;;;;;6.15;5.18;;;;;;;;;;5198061;22;20062;-81
2024/03/27 03:47:23;;;;;;;5.20;4.55;;;;;;;;;;5408188;22;20096;-81
2024/03/27 03:49:49;;;;;;;10.55;5.93;;;;;;;;;;5051705;28;20014;-81
2024/03/27 03:52:15;;;;;;;16.88;6.70;;;;;;;;;;5037506;28;20093;-84
2024/03/27 03:54:41;;;;;;;7.32;5.13;;;;;;;;;;5050574;28;20028;-84
2024/03/27 03:57:07;;;;;;;16.40;5.18;;;;;;;;;;5043620;28;20025;-82
2024/03/27 03:59:32;;;;;;;9.65;6.45;;;;;;;;;;5043413;28;20049;-85
2024/03/27 04:01:58;;;;;;;8.82;4.75;;;;;;;;;;5027322;28;20106;-82
2024/03/27 04:04:24;;;;;;;14.75;5.75;;;;;;;;;;5022733;28;20033;-82
2024/03/27 04:06:50;;;;;;;8.27;5.32;;;;;;;;;;5027351;28;20024;-82
2024/03/27 04:09:20;;;;;;;7.25;5.28;;;;;;;;;;5385638;22;20028;-78
2024/03/27 04:11:46;;;;;;;8.35;5.13;;;;;;;;;;5110411;23;20038;-85
2024/03/27 04:14:11;;;;;;;9.82;5.10;;;;;;;;;;5025319;28;20030;-86
2024/03/27 04:19:33;;;;;;;12.05;5.90;;;;;;;;;;5132286;22;20038;-88
2024/03/27 04:21:59;;;;;;;9.30;4.78;;;;;;;;;;5011772;28;20061;-86
2024/03/27 04:24:25;;;;;;;7.65;5.72;;;;;;;;;;5298771;22;20061;-81
2024/03/27 04:35:29;;;;;;;8.50;4.90;;;;;;;;;;6029812;22;21267;31
2024/03/27 04:41:09;;;;;;;9.10;5.30;;;;;;;;;;5567659;23;20080;-89
2024/03/27 04:43:39;;;;;;;10.35;5.18;;;;;;;;;;5427470;23;20222;-83
2024/03/27 04:46:06;;;;;;;14.38;5.80;;;;;;;;;;4984911;28;20058;-89
2024/03/27 04:48:32;;;;;;;10.55;6.10;;;;;;;;;;4998818;28;20014;-85
2024/03/27 04:50:58;;;;;;;12.63;5.70;;;;;;;;;;4988976;28;20050;-84
2024/03/27 04:53:24;;;;;;;12.15;5.43;;;;;;;;;;4994005;28;20031;-89
2024/03/27 04:55:54;;;;;;;12.15;5.10;;;;;;;;;;4989182;28;20065;-87
2024/03/27 05:01:08;;;;;;;8.52;5.10;;;;;;;;;;5881012;22;20097;-86
2024/03/27 05:03:34;;;;;;;9.85;5.75;;;;;;;;;;4947847;28;20034;-79
2024/03/27 05:06:00;;;;;;;9.05;5.53;;;;;;;;;;5002841;28;20057;-81
2024/03/27 05:08:26;;;;;;;12.38;5.80;;;;;;;;;;4973980;28;20031;-80
2024/03/27 05:10:52;;;;;;;14.30;6.03;;;;;;;;;;5002992;28;20061;-81
2024/03/27 05:13:18;;;;;;;7.25;5.30;;;;;;;;;;4989051;28;20113;-83
2024/03/27 05:15:44;;;;;;;18.52;6.47;;;;;;;;;;5011630;28;20077;-86
2024/03/27 05:18:09;;;;;;;10.60;5.13;;;;;;;;;;5016886;28;20046;-83
2024/03/27 05:20:35;;;;;;;14.93;5.90;;;;;;;;;;5003985;28;20045;-83
2024/03/27 05:23:01;;;;;;;11.70;6.57;;;;;;;;;;5005358;28;20022;-85
2024/03/27 05:25:27;;;;;;;12.10;5.65;;;;;;;;;;5013487;28;20022;-87
2024/03/27 05:27:53;;;;;;;9.48;5.80;;;;;;;;;;5015735;28;20057;-86
2024/03/27 05:30:18;;;;;;;6.65;5.30;;;;;;;;;;5011352;28;20030;-81
2024/03/27 05:32:44;;;;;;;17.17;6.38;;;;;;;;;;5010493;28;20049;-80
2024/03/27 05:35:10;;;;;;;15.60;5.88;;;;;;;;;;5001888;28;20524;-81
2024/03/27 05:37:36;;;;;;;17.80;6.03;;;;;;;;;;5013660;28;20057;-81
2024/03/27 05:40:21;;;;;;;14.95;5.13;;;;;;;;;;5014192;28;20046;-82
2024/03/27 05:42:47;;;;;;;13.05;5.68;;;;;;;;;;5016530;28;20030;-82
2024/03/27 05:45:13;;;;;;;12.50;5.68;;;;;;;;;;5211604;22;20017;-84
2024/03/27 05:50:21;;;;;;;7.20;4.93;;;;;;;;;;5217197;22;20062;-81
2024/03/27 05:52:47;;;;;;;10.00;5.22;;;;;;;;;;5012792;28;20613;-81
2024/03/27 05:55:13;;;;;;;14.70;4.72;;;;;;;;;;4989061;28;20049;-82
2024/03/27 05:57:39;;;;;;;7.88;4.80;;;;;;;;;;5019899;28;20038;-83
2024/03/27 06:00:09;;;;;;;13.75;5.40;;;;;;;;;;5015744;28;20056;-83
2024/03/27 06:02:44;;;;;;;8.57;5.13;;;;;;;;;;5015240;28;20021;-82
2024/03/27 06:05:10;;;;;;;7.68;4.40;;;;;;;;;;5017128;28;20124;-81
2024/03/27 06:07:36;;;;;;;13.38;5.65;;;;;;;;;;5018151;28;20034;-82
2024/03/27 06:10:01;;;;;;;11.45;4.72;;;;;;;;;;5004258;28;20065;-84
2024/03/27 06:12:30;;;;;;;4.28;3.65;;;;;;;;;;5002623;28;20029;-81
2024/03/27 06:14:56;;;;;;;5.53;4.07;;;;;;;;;;5007960;28;20123;-80
2024/03/27 06:17:22;;;;;;;10.70;4.38;;;;;;;;;;5003734;28;20037;-81
2024/03/27 06:19:48;;;;;;;6.85;3.97;;;;;;;;;;4996746;28;20426;-78
2024/03/27 06:22:13;;;;;;;7.75;5.15;;;;;;;;;;4987386;28;20042;-81
2024/03/27 06:24:40;;;;;;;5.82;4.50;;;;;;;;;;5000792;28;20500;-81
2024/03/27 06:27:06;;;;;;;8.68;4.43;;;;;;;;;;4988078;28;20037;-80
2024/03/27 06:29:32;;;;;;;8.27;4.43;;;;;;;;;;4992661;28;20418;-79
2024/03/27 06:31:58;;;;;;;5.63;3.65;;;;;;;;;;4997846;28;20141;-77
2024/03/27 06:34:23;;;;;;;5.28;3.40;;;;;;;;;;4992777;28;20042;-78
2024/03/27 06:36:49;;;;;;;4.25;3.58;;;;;;;;;;4996390;28;20038;-79
2024/03/27 06:39:15;;;;;;;4.20;3.10;;;;;;;;;;4995995;28;20535;-78
2024/03/27 06:41:42;;;;;;;4.40;3.20;;;;;;;;;;4980612;28;20037;-78
2024/03/27 06:44:11;;;;;;;5.65;3.50;;;;;;;;;;4991578;28;20046;-79
2024/03/27 06:46:37;;;;;;;3.78;3.45;;;;;;;;;;5000492;28;20054;-79
2024/03/27 06:49:17;;;;;;;4.07;3.00;;;;;;;;;;4999455;28;20092;-74
2024/03/27 06:51:44;;;;;;;;;;;;;;;;;;4983208;28;20036;-74
2024/03/27 06:54:09;;;;;;;3.22;3.03;;;;;;;;;;4997491;28;20385;-75
2024/03/27 06:56:35;;;;;;;3.28;3.00;;;;;;;;;;4999508;28;20046;-74
2024/03/27 06:59:02;;;;;;;4.28;3.10;;;;;;;;;;5001650;28;20050;-74
2024/03/27 07:01:28;;;;;;;6.97;3.10;;;;;;;;;;5001196;28;20535;-73
2024/03/27 07:03:55;;;;;;;6.43;2.70;;;;;;;;;;4996507;28;20065;-73
2024/03/27 07:06:20;;;;;;;4.20;3.80;;;;;;;;;;5002005;28;20043;-73
2024/03/27 07:08:47;;;;;;;11.43;4.30;;;;;;;;;;5002078;28;20038;-74
2024/03/27 07:11:13;;;;;;;5.18;3.40;;;;;;;;;;4963077;28;20703;-78
2024/03/27 07:13:39;;;;;;;4.22;3.42;;;;;;;;;;4997832;28;20026;-76
2024/03/27 07:16:05;;;;;;;3.65;3.25;;;;;;;;;;4971859;28;20563;-77
2024/03/27 07:18:31;;;;;;;5.25;2.85;;;;;;;;;;5001232;28;20038;-75
2024/03/27 07:20:57;;;;;;;3.03;2.70;;;;;;;;;;4991426;28;20093;-75
2024/03/27 07:23:22;;;;;;;2.85;2.20;;;;;;;;;;4979997;28;20025;-74
2024/03/27 07:25:48;;;;;;;3.47;2.78;;;;;;;;;;4998159;28;20403;-75
2024/03/27 07:28:14;;;;;;;5.63;2.78;;;;;;;;;;5001921;28;20034;-75
2024/03/27 07:30:40;;;;;;;6.97;2.78;;;;;;;;;;5001474;28;20100;-75
2024/03/27 07:33:06;;;;;;;6.57;3.20;;;;;;;;;;4998988;28;20034;-75
2024/03/27 07:35:32;;;;;;;10.75;3.25;;;;;;;;;;4981040;28;20525;-74
2024/03/27 07:37:58;;;;;;;3.58;3.03;;;;;;;;;;4995298;28;20139;-75
2024/03/27 07:40:26;;;;;;;4.68;2.72;;;;;;;;;;5000998;28;20053;-75
2024/03/27 07:42:52;;;;;;;5.82;3.22;;;;;;;;;;5000920;28;20421;-75
2024/03/27 07:45:18;;;;;;;2.92;2.58;;;;;;;;;;4996667;28;20684;-75
2024/03/27 07:47:44;;;;;;;2.65;2.30;;;;;;;;;;4993974;28;20117;-76
2024/03/27 07:50:10;;;;;;;5.85;2.22;;;;;;;;;;4994813;28;20120;-75
2024/03/27 07:52:36;;;;;;;5.25;3.35;;;;;;;;;;4995317;28;20067;-73
2024/03/27 07:55:02;;;;;;;5.43;2.95;;;;;;;;;;4996424;28;20414;-74
2024/03/27 07:57:29;;;;;;;2.80;2.40;;;;;;;;;;4991780;28;20031;-75
2024/03/27 07:59:55;;;;;;;5.82;2.85;;;;;;;;;;4998939;28;20410;-74
2024/03/27 08:02:21;;;;;;;4.43;2.35;;;;;;;;;;5000770;28;20576;-74
2024/03/27 08:04:48;;;;;;;2.88;2.10;;;;;;;;;;4977875;28;20035;-76
2024/03/27 08:07:14;;;;;;;14.70;2.70;;;;;;;;;;4996039;28;20268;-76
2024/03/27 08:09:40;;;;;;;2.85;2.33;;;;;;;;;;4999805;28;20042;-73
2024/03/27 08:12:06;;;;;;;3.42;2.30;;;;;;;;;;5002808;28;20453;-74
2024/03/27 08:14:32;;;;;;;4.65;2.67;;;;;;;;;;4995995;28;20038;-75
2024/03/27 08:16:58;;;;;;;4.20;2.72;;;;;;;;;;4980382;28;20410;-74
2024/03/27 08:19:24;;;;;;;4.70;2.33;;;;;;;;;;4977623;28;20236;-74
2024/03/27 08:21:50;;;;;;;3.83;2.17;;;;;;;;;;4995890;28;20037;-73
2024/03/27 08:24:15;;;;;;;2.28;2.17;;;;;;;;;;4994572;28;20045;-74
2024/03/27 08:26:41;;;;;;;4.57;2.78;;;;;;;;;;4978884;28;20047;-73
2024/03/27 08:32:10;;;;;;;4.88;2.17;;;;;;;;;;4999345;28;20085;-74
2024/03/27 08:34:36;;;;;;;3.72;2.47;;;;;;;;;;4996541;28;20127;-75
2024/03/27 08:37:02;;;;;;;6.57;2.90;;;;;;;;;;4998816;28;20073;-76
2024/03/27 08:39:29;;;;;;;5.03;3.17;;;;;;;;;;5001938;28;20048;-75
2024/03/27 08:41:55;;;;;;;4.50;2.63;;;;;;;;;;4978814;28;20027;-74
2024/03/27 08:44:21;;;;;;;2.40;2.05;;;;;;;;;;4995619;28;20213;-73
2024/03/27 08:46:47;;;;;;;4.13;2.03;;;;;;;;;;4994596;28;20109;-73
2024/03/27 08:49:13;;;;;;;2.63;2.20;;;;;;;;;;5001972;28;20038;-74
2024/03/27 08:51:39;;;;;;;4.38;2.30;;;;;;;;;;4991872;28;20033;-73
2024/03/27 08:54:05;;;;;;;2.20;2.00;;;;;;;;;;4999422;28;20065;-74
2024/03/27 08:56:31;;;;;;;3.55;2.30;;;;;;;;;;4995256;28;20235;-74
2024/03/27 08:58:57;;;;;;;9.48;2.70;;;;;;;;;;4997258;28;20125;-74
2024/03/27 09:01:23;;;;;;;7.32;2.70;;;;;;;;;;4974379;28;20038;-73
2024/03/27 09:03:49;;;;;;;5.25;2.85;;;;;;;;;;4995038;28;20041;-73
2024/03/27 09:06:14;;;;;;;2.00;1.88;;;;;;;;;;4994472;28;20104;-75
2024/03/27 09:08:40;;;;;;;4.20;2.20;;;;;;;;;;4999588;28;20034;-75
2024/03/27 09:11:06;;;;;;;5.45;3.05;;;;;;;;;;4998233;28;20533;-75
2024/03/27 09:13:32;;;;;;;4.05;2.38;;;;;;;;;;5002449;28;20034;-76
2024/03/27 09:15:58;;;;;;;5.90;3.17;;;;;;;;;;4999345;28;20053;-75
2024/03/27 09:18:25;;;;;;;2.92;2.70;;;;;;;;;;5002884;28;20053;-75
2024/03/27 09:20:54;;;;;;;5.07;2.63;;;;;;;;;;5007180;28;20030;-74
2024/03/27 09:23:20;;;;;;;3.67;2.20;;;;;;;;;;5002335;28;20026;-75
2024/03/27 09:25:55;;;;;;;3.85;2.30;;;;;;;;;;5000314;28;20034;-77
2024/03/27 09:28:21;;;;;;;1.20;1.20;;;;;;;;;;4994949;28;20049;-76
2024/03/27 09:30:47;;;;;;;2.97;2.30;;;;;;;;;;5001893;28;20033;-75
2024/03/27 09:33:13;;;;;;;5.72;2.53;;;;;;;;;;5001444;28;20040;-75
2024/03/27 09:35:41;;;;;;;6.20;2.28;;;;;;;;;;4990890;28;20069;-75
2024/03/27 09:38:06;;;;;;;6.03;2.55;;;;;;;;;;4998770;28;20089;-75
2024/03/27 09:40:33;;;;;;;8.25;3.05;;;;;;;;;;4996699;28;20054;-75
2024/03/27 09:42:59;;;;;;;2.10;1.90;;;;;;;;;;4998640;28;20411;-74
2024/03/27 09:45:26;;;;;;;5.35;2.50;;;;;;;;;;5000270;28;20046;-75
2024/03/27 09:47:51;;;;;;;3.28;2.42;;;;;;;;;;4999798;28;20530;-74
2024/03/27 09:50:17;;;;;;;6.90;1.75;;;;;;;;;;4997293;28;20054;-75
2024/03/27 09:52:43;;;;;;;2.33;2.22;;;;;;;;;;5000204;28;20026;-76
2024/03/27 09:55:10;;;;;;;2.80;2.33;;;;;;;;;;4993953;28;20034;-75
2024/03/27 09:57:36;;;;;;;3.25;1.98;;;;;;;;;;5002229;28;20046;-75
2024/03/27 10:00:03;;;;;;;3.67;2.00;;;;;;;;;;5000134;28;20397;-75
2024/03/27 10:02:31;;;;;;;3.05;2.53;;;;;;;;;;4997905;28;20040;-75
2024/03/27 10:04:58;;;;;;;2.83;1.88;;;;;;;;;;4999952;28;20026;-75
2024/03/27 10:07:24;;;;;;;7.85;2.40;;;;;;;;;;4993395;28;20132;-75
2024/03/27 10:09:50;;;;;;;5.28;2.30;;;;;;;;;;4997542;28;20048;-78
2024/03/27 10:12:16;;;;;;;2.20;2.03;;;;;;;;;;4994210;28;20458;-76
2024/03/27 10:14:42;;;;;;;1.95;1.80;;;;;;;;;;5001941;28;20037;-74
2024/03/27 10:17:08;;;;;;;2.97;2.45;;;;;;;;;;4989418;28;20762;-79
2024/03/27 10:19:34;;;;;;;3.38;2.45;;;;;;;;;;4997640;28;20041;-77
2024/03/27 10:21:59;;;;;;;3.05;2.13;;;;;;;;;;5001346;28;20041;-80
2024/03/27 10:24:25;;;;;;;2.03;1.90;;;;;;;;;;5000127;28;20489;-78
2024/03/27 10:26:51;;;;;;;3.20;2.38;;;;;;;;;;4995034;28;20050;-76
2024/03/27 10:29:17;;;;;;;2.72;2.30;;;;;;;;;;4996232;28;20026;-76
2024/03/27 10:31:43;;;;;;;2.20;2.00;;;;;;;;;;4998033;28;20065;-75
2024/03/27 10:34:09;;;;;;;1.42;1.33;;;;;;;;;;4991735;28;20027;-78
2024/03/27 10:36:35;;;;;;;4.72;2.40;;;;;;;;;;4977182;28;20081;-77
2024/03/27 10:39:03;;;;;;;4.45;2.47;;;;;;;;;;4995303;28;20081;-76
2024/03/27 10:41:29;;;;;;;2.95;2.47;;;;;;;;;;4984301;28;20062;-76
2024/03/27 10:43:55;;;;;;;2.78;2.13;;;;;;;;;;4997439;28;20367;-78
2024/03/27 10:46:21;;;;;;;2.20;2.00;;;;;;;;;;4989078;28;20081;-78
2024/03/27 10:48:47;;;;;;;3.80;1.90;;;;;;;;;;4995833;28;20057;-77
2024/03/27 10:51:13;;;;;;;6.95;2.80;;;;;;;;;;4999809;28;20136;-76
2024/03/27 10:53:39;;;;;;;3.67;2.25;;;;;;;;;;4993321;28;20062;-78
2024/03/27 10:56:04;;;;;;;2.35;2.10;;;;;;;;;;4993877;28;20566;-75
2024/03/27 10:58:30;;;;;;;5.32;2.10;;;;;;;;;;5001468;28;20409;-77
2024/03/27 11:00:56;;;;;;;4.85;2.33;;;;;;;;;;4998982;28;20022;-78
2024/03/27 11:03:25;;;;;;;3.40;2.00;;;;;;;;;;4997059;28;20038;-77
2024/03/27 11:05:51;;;;;;;4.93;2.20;;;;;;;;;;4996253;28;20430;-77
2024/03/27 11:08:17;;;;;;;2.30;1.83;;;;;;;;;;4994734;28;20201;-77
2024/03/27 11:10:43;;;;;;;5.07;2.60;;;;;;;;;;4987974;28;20141;-77
2024/03/27 11:13:09;;;;;;;1.40;1.38;;;;;;;;;;4991702;28;20080;-78
2024/03/27 11:15:39;;;;;;;2.83;1.92;;;;;;;;;;4993384;28;20414;-76
2024/03/27 11:18:12;;;;;;;2.47;2.28;;;;;;;;;;4999815;28;20038;-77
2024/03/27 11:20:38;;;;;;;4.65;2.28;;;;;;;;;;4979706;28;20088;-78
2024/03/27 11:23:04;;;;;;;2.72;1.85;;;;;;;;;;4979720;28;20081;-77
2024/03/27 11:25:30;;;;;;;2.80;1.90;;;;;;;;;;4997821;28;20046;-76
2024/03/27 11:27:56;;;;;;;6.85;2.20;;;;;;;;;;4997768;28;20041;-78
2024/03/27 11:30:21;;;;;;;1.73;1.65;;;;;;;;;;4999370;28;20507;-79
2024/03/27 11:32:47;;;;;;;2.47;1.80;;;;;;;;;;5005446;28;20034;-77
2024/03/27 11:35:14;;;;;;;2.75;2.20;;;;;;;;;;5000406;28;20048;-79
2024/03/27 11:37:40;;;;;;;2.17;2.05;;;;;;;;;;4990996;28;20036;-77
2024/03/27 11:40:06;;;;;;;3.28;2.20;;;;;;;;;;5000640;28;20046;-78
2024/03/27 11:42:32;;;;;;;2.50;2.30;;;;;;;;;;5000211;28;20050;-79
2024/03/27 11:44:57;;;;;;;2.55;1.77;;;;;;;;;;4999070;28;20088;-78
2024/03/27 11:47:24;;;;;;;2.95;2.42;;;;;;;;;;4997304;28;20042;-79
2024/03/27 11:49:50;;;;;;;2.38;2.05;;;;;;;;;;4972661;28;20089;-79
2024/03/27 11:52:16;;;;;;;3.35;2.03;;;;;;;;;;4996820;28;20061;-77
2024/03/27 11:54:42;;;;;;;3.00;2.28;;;;;;;;;;4998316;28;20054;-77
2024/03/27 11:57:07;;;;;;;7.95;2.20;;;;;;;;;;4998909;28;20073;-77
2024/03/27 11:59:33;;;;;;;6.70;2.17;;;;;;;;;;4998956;28;20033;-78
2024/03/27 12:02:03;;;;;;;2.60;2.40;;;;;;;;;;4994972;28;20085;-76
2024/03/27 12:04:29;;;;;;;6.07;2.92;;;;;;;;;;5002173;28;20037;-78
2024/03/27 12:06:55;;;;;;;6.43;3.78;;;;;;;;;;5001249;28;20116;-78
2024/03/27 12:09:21;;;;;;;11.77;3.03;;;;;;;;;;5001736;28;20041;-77
2024/03/27 12:11:47;;;;;;;9.57;2.60;;;;;;;;;;5000568;28;20042;-77
2024/03/27 12:14:17;;;;;;;2.08;1.83;;;;;;;;;;5000175;28;20387;-78
2024/03/27 12:16:43;;;;;;;2.20;2.00;;;;;;;;;;5004864;28;20042;-78
2024/03/27 12:19:09;;;;;;;3.85;2.13;;;;;;;;;;5000854;28;20049;-78
2024/03/27 12:21:35;;;;;;;2.10;1.90;;;;;;;;;;4997902;28;20441;-78
2024/03/27 12:24:00;;;;;;;2.72;2.22;;;;;;;;;;5002603;28;20027;-77
2024/03/27 12:26:26;;;;;;;6.03;2.20;;;;;;;;;;5000181;28;20085;-76
2024/03/27 12:28:52;;;;;;;4.80;2.78;;;;;;;;;;5001506;28;20029;-78
2024/03/27 12:31:21;;;;;;;4.55;2.72;;;;;;;;;;4998882;28;20045;-78
2024/03/27 12:33:47;;;;;;;6.13;2.28;;;;;;;;;;4989832;28;20038;-78
2024/03/27 12:36:13;;;;;;;2.78;2.58;;;;;;;;;;5001143;28;20042;-79
2024/03/27 12:38:39;;;;;;;3.28;2.63;;;;;;;;;;4996073;28;20041;-77
2024/03/27 12:41:05;;;;;;;4.20;2.38;;;;;;;;;;5000191;28;20038;-77
2024/03/27 12:43:32;;;;;;;4.60;2.35;;;;;;;;;;4999818;28;20092;-77
2024/03/27 12:45:57;;;;;;;16.05;2.28;;;;;;;;;;4999650;28;20553;-77
2024/03/27 12:48:25;;;;;;;2.40;2.20;;;;;;;;;;5002569;28;20064;-79
2024/03/27 12:50:51;;;;;;;4.95;1.85;;;;;;;;;;4996621;28;20056;-78
2024/03/27 12:53:17;;;;;;;1.77;1.67;;;;;;;;;;5001901;28;20030;-78
2024/03/27 12:55:43;;;;;;;3.65;2.30;;;;;;;;;;4966484;28;20058;-77
2024/03/27 12:58:09;;;;;;;3.88;3.05;;;;;;;;;;4995733;28;20030;-77
2024/03/27 13:00:38;;;;;;;2.90;2.65;;;;;;;;;;4998706;28;20497;-78
2024/03/27 13:03:05;;;;;;;7.68;2.65;;;;;;;;;;5001336;28;20034;-78
2024/03/27 13:05:33;;;;;;;4.15;2.53;;;;;;;;;;4985265;28;20065;-77
2024/03/27 13:07:59;;;;;;;6.80;2.72;;;;;;;;;;4999961;28;20033;-79
2024/03/27 13:10:26;;;;;;;4.78;2.50;;;;;;;;;;4998425;28;20498;-78
2024/03/27 13:12:52;;;;;;;2.30;2.00;;;;;;;;;;4998694;28;20035;-77
2024/03/27 13:15:18;;;;;;;9.38;2.50;;;;;;;;;;5003771;28;20033;-78
2024/03/27 13:17:44;;;;;;;3.20;2.35;;;;;;;;;;4996592;28;20529;-77
2024/03/27 13:20:10;;;;;;;4.40;2.35;;;;;;;;;;4998158;28;20177;-78
2024/03/27 13:22:36;;;;;;;3.65;2.67;;;;;;;;;;4999632;28;20058;-78
2024/03/27 13:25:03;;;;;;;2.50;2.25;;;;;;;;;;5002275;28;20068;-79
2024/03/27 13:27:30;;;;;;;5.03;2.35;;;;;;;;;;5003880;28;20045;-79
2024/03/27 13:29:56;;;;;;;5.43;2.38;;;;;;;;;;5000497;28;20057;-79
2024/03/27 13:32:22;;;;;;;3.65;2.40;;;;;;;;;;4997755;28;20042;-79
2024/03/27 13:34:48;;;;;;;3.40;1.90;;;;;;;;;;5004437;28;20022;-78
2024/03/27 13:37:14;;;;;;;2.97;1.75;;;;;;;;;;4986973;28;20053;-78
2024/03/27 13:39:41;;;;;;;5.43;2.00;;;;;;;;;;5008367;28;20043;-78
2024/03/27 13:42:07;;;;;;;2.10;1.90;;;;;;;;;;4996878;28;20040;-78
2024/03/27 13:44:33;;;;;;;4.53;2.00;;;;;;;;;;5003363;28;20090;-77
2024/03/27 13:47:00;;;;;;;2.47;1.83;;;;;;;;;;4997935;28;20093;-76
2024/03/27 13:49:26;;;;;;;3.53;1.98;;;;;;;;;;4999496;28;20113;-77
2024/03/27 13:51:52;;;;;;;3.05;2.10;;;;;;;;;;5000355;28;20376;-78
2024/03/27 13:54:18;;;;;;;2.08;1.90;;;;;;;;;;5003334;28;20037;-78
2024/03/27 13:56:44;;;;;;;2.40;2.22;;;;;;;;;;4997179;28;20058;-78
2024/03/27 13:59:10;;;;;;;4.28;2.20;;;;;;;;;;4985682;28;20475;-79
2024/03/27 14:01:36;;;;;;;2.00;1.90;;;;;;;;;;5000256;28;20077;-77
2024/03/27 14:04:02;;;;;;;4.43;2.20;;;;;;;;;;5000945;28;20032;-78
2024/03/27 14:06:28;;;;;;;3.25;1.77;;;;;;;;;;5000238;28;20478;-78
2024/03/27 14:08:54;;;;;;;2.45;2.13;;;;;;;;;;4995033;28;20018;-78
2024/03/27 14:11:20;;;;;;;2.53;2.00;;;;;;;;;;4998858;28;20441;-78
2024/03/27 14:13:45;;;;;;;2.58;1.75;;;;;;;;;;4999255;28;20122;-78
2024/03/27 14:16:11;;;;;;;4.05;2.20;;;;;;;;;;5000305;28;20139;-78
2024/03/27 14:18:37;;;;;;;3.92;2.33;;;;;;;;;;5001392;28;20037;-77
2024/03/27 14:21:03;;;;;;;2.25;2.05;;;;;;;;;;4978126;28;20422;-78
2024/03/27 14:23:29;;;;;;;4.93;2.50;;;;;;;;;;5000324;28;20030;-78
2024/03/27 14:25:57;;;;;;;3.10;1.95;;;;;;;;;;4998367;28;20112;-78
2024/03/27 14:28:25;;;;;;;3.28;2.45;;;;;;;;;;4997611;28;20049;-78
2024/03/27 14:30:50;;;;;;;2.65;2.30;;;;;;;;;;4999158;28;20038;-78
2024/03/27 14:33:16;;;;;;;6.55;2.90;;;;;;;;;;4996420;28;20034;-78
2024/03/27 14:35:43;;;;;;;2.72;2.20;;;;;;;;;;5002022;28;20038;-78
2024/03/27 14:38:09;;;;;;;9.48;2.80;;;;;;;;;;4975609;28;20038;-78
2024/03/27 14:40:35;;;;;;;4.75;2.30;;;;;;;;;;4999371;28;20049;-78
2024/03/27 14:43:01;;;;;;;2.33;2.10;;;;;;;;;;4999834;28;20038;-78
2024/03/27 14:45:27;;;;;;;5.60;3.30;;;;;;;;;;4997941;28;20133;-77
2024/03/27 14:47:53;;;;;;;4.70;2.63;;;;;;;;;;4995864;28;20482;-78
2024/03/27 14:50:19;;;;;;;9.02;3.22;;;;;;;;;;4997519;28;20080;-78
2024/03/27 14:52:44;;;;;;;2.95;2.55;;;;;;;;;;4997455;28;20034;-78
2024/03/27 14:55:10;;;;;;;2.85;2.28;;;;;;;;;;5000409;28;20502;-79
2024/03/27 14:57:36;;;;;;;2.58;2.13;;;;;;;;;;4994768;28;20533;-77